createdAt,value
2018-05-08T00:01:19.216Z,16.77
2018-05-08T00:04:21.748Z,16.71
2018-05-08T00:07:24.284Z,16.74
2018-05-08T00:10:26.851Z,16.46
2018-05-08T00:13:29.445Z,16.49
2018-05-08T00:16:32.018Z,16.42
2018-05-08T00:19:34.995Z,16.38
2018-05-08T00:22:37.527Z,16.27
2018-05-08T00:25:40.085Z,16.41
2018-05-08T00:28:42.568Z,16.45
2018-05-08T00:31:45.167Z,16.37
2018-05-08T00:34:47.717Z,16.10
2018-05-08T00:37:50.272Z,15.94
2018-05-08T00:40:52.840Z,16.02
2018-05-08T00:43:55.366Z,15.69
2018-05-08T00:46:57.938Z,15.86
2018-05-08T00:50:00.503Z,15.75
2018-05-08T00:53:03.077Z,15.78
2018-05-08T00:56:05.670Z,15.53
2018-05-08T00:59:08.238Z,15.58
2018-05-08T01:02:10.803Z,15.81
2018-05-08T03:41:54.148Z,14.42
2018-05-08T03:45:27.891Z,14.43
2018-05-08T06:26:11.408Z,16.92
2018-05-08T06:29:13.882Z,17.02
2018-05-08T06:32:16.416Z,17.18
2018-05-08T06:35:18.914Z,17.18
2018-05-08T06:38:21.419Z,17.30
2018-05-08T06:41:23.925Z,17.39
2018-05-08T06:44:26.500Z,17.49
2018-05-08T06:47:30.105Z,17.62
2018-05-08T06:50:32.646Z,17.89
2018-05-08T06:53:41.886Z,18.11
2018-05-08T06:56:44.413Z,18.27
2018-05-08T06:59:46.939Z,18.48
2018-05-08T07:02:49.478Z,18.64
2018-05-08T07:05:51.998Z,18.68
2018-05-08T07:09:57.636Z,18.72
2018-05-08T07:13:00.222Z,18.82
2018-05-08T07:16:02.944Z,18.91
2018-05-08T07:19:05.300Z,19.04
2018-05-08T07:22:07.859Z,19.17
2018-05-08T07:25:10.375Z,19.18
2018-05-08T07:28:13.113Z,19.37
2018-05-08T07:31:15.627Z,19.63
2018-05-08T07:34:18.150Z,19.69
2018-05-08T07:37:20.674Z,20.23
2018-05-08T07:40:23.191Z,20.20
2018-05-08T07:43:25.706Z,20.33
2018-05-08T07:46:28.219Z,20.55
2018-05-08T07:49:30.742Z,20.65
2018-05-08T07:52:33.269Z,20.83
2018-05-08T07:55:35.741Z,21.02
2018-05-08T07:58:38.345Z,21.18
2018-05-08T08:01:40.866Z,21.36
2018-05-08T08:04:43.365Z,21.39
2018-05-08T08:07:47.091Z,21.52
2018-05-08T08:10:50.352Z,21.85
2018-05-08T08:13:52.876Z,22.14
2018-05-08T08:16:55.371Z,22.24
2018-05-08T08:19:57.854Z,22.38
2018-05-08T08:23:00.348Z,22.58
2018-05-08T08:26:03.109Z,22.90
2018-05-08T08:29:05.649Z,22.91
2018-05-08T08:32:09.226Z,22.91
2018-05-08T08:35:11.738Z,23.23
2018-05-08T08:38:14.328Z,23.38
2018-05-08T08:41:16.865Z,23.56
2018-05-08T08:44:19.367Z,24.03
2018-05-08T08:47:21.868Z,24.05
2018-05-08T08:50:24.430Z,24.19
2018-05-08T08:53:26.924Z,24.31
2018-05-08T08:56:29.421Z,24.55
2018-05-08T08:59:31.909Z,24.62
2018-05-08T09:02:34.392Z,25.00
2018-05-08T09:05:36.898Z,25.03
2018-05-08T09:08:39.896Z,25.18
2018-05-08T09:11:42.421Z,25.33
2018-05-08T09:14:44.936Z,25.47
2018-05-08T09:17:48.360Z,25.58
2018-05-08T09:20:50.868Z,25.87
2018-05-08T09:23:53.378Z,25.83
2018-05-08T09:26:55.886Z,25.91
2018-05-08T09:29:58.446Z,26.12
2018-05-08T09:33:00.985Z,26.10
2018-05-08T09:36:03.443Z,26.16
2018-05-08T09:39:05.953Z,26.50
2018-05-08T09:42:08.466Z,26.24
2018-05-08T09:45:10.955Z,26.54
2018-05-08T09:48:13.438Z,26.54
2018-05-08T09:51:16.029Z,26.30
2018-05-08T09:54:18.565Z,26.41
2018-05-08T09:57:21.060Z,26.68
2018-05-08T10:00:23.556Z,26.80
2018-05-08T10:03:26.101Z,26.83
2018-05-08T10:06:28.627Z,26.76
2018-05-08T10:09:31.115Z,26.94
2018-05-08T10:12:33.629Z,27.00
2018-05-08T10:15:36.168Z,27.14
2018-05-08T10:18:38.703Z,27.24
2018-05-08T10:21:41.204Z,27.10
2018-05-08T10:24:43.700Z,27.37
2018-05-08T10:27:46.212Z,27.56
2018-05-08T10:30:48.745Z,27.54
2018-05-08T10:33:51.231Z,27.74
2018-05-08T10:36:53.752Z,27.72
2018-05-08T10:39:56.292Z,28.00
2018-05-08T10:42:58.793Z,28.12
2018-05-08T10:46:01.312Z,28.28
2018-05-08T10:49:03.821Z,28.17
2018-05-08T10:52:06.315Z,28.17
2018-05-08T10:55:09.001Z,28.10
2018-05-08T10:58:11.486Z,28.13
2018-05-08T11:01:13.990Z,28.44
2018-05-08T11:04:16.457Z,28.25
2018-05-08T11:07:18.998Z,28.16
2018-05-08T11:10:21.511Z,28.25
2018-05-08T11:13:24.093Z,28.30
2018-05-08T11:16:26.579Z,28.40
2018-05-08T11:19:29.091Z,28.60
2018-05-08T11:22:31.572Z,28.41
2018-05-08T11:25:34.085Z,28.92
2018-05-08T11:28:36.571Z,28.85
2018-05-08T11:31:39.066Z,28.84
2018-05-08T11:34:41.544Z,28.97
2018-05-08T11:37:44.037Z,28.75
2018-05-08T11:40:46.540Z,28.75
2018-05-08T11:43:49.041Z,28.69
2018-05-08T11:46:51.554Z,29.02
2018-05-08T11:49:54.130Z,28.96
2018-05-08T11:52:56.647Z,29.00
2018-05-08T11:55:59.151Z,29.21
2018-05-08T11:59:01.709Z,29.28
2018-05-08T12:02:04.335Z,29.63
2018-05-08T12:05:06.823Z,29.61
2018-05-08T12:08:09.820Z,29.40
2018-05-08T12:11:12.873Z,29.33
2018-05-08T12:14:15.376Z,29.08
2018-05-08T12:17:19.079Z,29.62
2018-05-08T12:20:21.568Z,29.21
2018-05-08T12:23:24.103Z,29.19
2018-05-08T12:26:26.601Z,29.53
2018-05-08T12:29:29.142Z,29.48
2018-05-08T12:32:31.661Z,29.62
2018-05-08T12:35:34.185Z,29.98
2018-05-08T12:38:36.698Z,29.63
2018-05-08T12:41:39.301Z,29.64
2018-05-08T12:44:41.863Z,29.57
2018-05-08T12:47:44.422Z,29.71
2018-05-08T12:50:46.947Z,29.52
2018-05-08T12:53:49.607Z,29.81
2018-05-08T12:56:53.025Z,29.76
2018-05-08T12:59:55.605Z,29.77
2018-05-08T13:02:58.217Z,29.78
2018-05-08T13:06:00.868Z,29.69
2018-05-08T13:09:03.368Z,29.60
2018-05-08T13:12:05.908Z,29.89
2018-05-08T13:15:08.438Z,29.74
2018-05-08T13:18:12.184Z,29.85
2018-05-08T13:21:14.785Z,29.56
2018-05-08T13:24:17.322Z,29.70
2018-05-08T13:27:19.823Z,29.48
2018-05-08T13:30:22.342Z,29.66
2018-05-08T13:33:24.902Z,29.43
2018-05-08T13:36:27.392Z,29.24
2018-05-08T13:39:29.903Z,29.22
2018-05-08T13:42:32.410Z,29.51
2018-05-08T13:45:34.982Z,29.39
2018-05-08T13:48:37.485Z,29.40
2018-05-08T13:51:40.843Z,29.40
2018-05-08T13:54:43.353Z,29.79
2018-05-08T13:57:45.847Z,29.83
2018-05-08T14:00:48.439Z,29.77
2018-05-08T14:03:50.888Z,29.54
2018-05-08T14:06:53.439Z,29.67
2018-05-08T14:09:55.990Z,29.82
2018-05-08T14:12:58.570Z,29.74
2018-05-08T14:16:01.108Z,30.12
2018-05-08T14:19:03.602Z,29.70
2018-05-08T14:22:06.129Z,29.86
2018-05-08T14:25:08.682Z,29.38
2018-05-08T14:28:11.224Z,29.31
2018-05-08T14:31:13.773Z,28.93
2018-05-08T14:34:16.305Z,29.21
2018-05-08T14:37:18.824Z,28.98
2018-05-08T14:40:21.570Z,28.81
2018-05-08T14:43:24.912Z,29.21
2018-05-08T14:46:27.442Z,29.37
2018-05-08T14:49:30.098Z,29.60
2018-05-08T14:52:32.643Z,29.38
2018-05-08T14:55:35.161Z,29.18
2018-05-08T14:58:37.662Z,29.24
2018-05-08T15:01:40.232Z,29.10
2018-05-08T15:04:42.865Z,28.89
2018-05-08T15:07:45.375Z,29.08
2018-05-08T15:10:47.896Z,28.98
2018-05-08T15:13:50.384Z,28.86
2018-05-08T15:16:52.951Z,28.98
2018-05-08T15:19:55.528Z,28.70
2018-05-08T15:22:58.064Z,28.81
2018-05-08T15:26:00.644Z,28.90
2018-05-08T15:29:03.266Z,28.61
2018-05-08T15:32:05.881Z,28.61
2018-05-08T15:35:08.501Z,28.78
2018-05-08T15:38:11.027Z,28.64
2018-05-08T15:41:13.587Z,28.47
2018-05-08T15:44:16.084Z,28.53
2018-05-08T15:47:18.606Z,28.52
2018-05-08T15:50:21.197Z,28.32
2018-05-08T15:53:23.787Z,28.41
2018-05-08T15:56:26.338Z,28.11
2018-05-08T15:59:28.857Z,27.97
2018-05-08T16:02:31.396Z,27.73
2018-05-08T16:05:33.911Z,27.86
2018-05-08T16:08:36.462Z,27.77
2018-05-08T16:11:39.077Z,27.74
2018-05-08T16:14:41.614Z,27.13
2018-05-08T16:17:44.156Z,27.29
2018-05-08T16:20:46.747Z,26.91
2018-05-08T16:23:49.266Z,26.85
2018-05-08T16:26:51.785Z,26.80
2018-05-08T16:29:54.350Z,26.90
2018-05-08T16:32:56.980Z,26.66
2018-05-08T16:35:59.506Z,26.37
2018-05-08T16:39:02.039Z,26.35
2018-05-08T16:42:04.561Z,26.28
2018-05-08T16:45:07.070Z,26.16
2018-05-08T16:48:11.976Z,26.03
2018-05-08T16:51:14.536Z,26.07
2018-05-08T16:54:17.049Z,26.16
2018-05-08T16:57:19.596Z,26.40
2018-05-08T17:00:23.105Z,26.12
2018-05-08T17:03:27.153Z,26.21
2018-05-08T17:06:30.911Z,26.07
2018-05-08T17:09:58.733Z,26.08
2018-05-08T17:13:01.476Z,25.87
2018-05-08T17:16:04.851Z,25.79
2018-05-08T17:19:08.782Z,25.69
2018-05-08T17:22:11.643Z,25.59
2018-05-08T17:25:14.291Z,25.56
2018-05-08T17:28:17.037Z,25.44
2018-05-08T17:31:20.834Z,25.38
2018-05-08T17:34:26.603Z,25.33
2018-05-08T17:37:29.319Z,25.29
2018-05-08T17:40:34.683Z,25.27
2018-05-08T17:43:37.331Z,25.16
2018-05-08T17:46:42.601Z,25.01
2018-05-08T17:49:46.653Z,24.93
2018-05-08T17:52:50.151Z,24.87
2018-05-08T17:55:53.961Z,24.70
2018-05-08T17:58:57.549Z,24.65
2018-05-08T18:02:00.156Z,24.55
2018-05-08T18:05:02.784Z,24.79
2018-05-08T18:08:05.491Z,24.76
2018-05-08T18:11:08.733Z,24.63
2018-05-08T18:14:11.365Z,24.26
2018-05-08T18:17:15.825Z,24.10
2018-05-08T18:20:20.962Z,23.90
2018-05-08T18:26:34.717Z,23.86
2018-05-08T18:29:37.390Z,23.82
2018-05-08T18:32:40.657Z,23.97
2018-05-08T18:35:43.958Z,23.47
2018-05-08T18:38:48.142Z,23.92
2018-05-08T18:41:50.812Z,23.70
2018-05-08T18:44:53.556Z,23.58
2018-05-08T18:47:56.895Z,23.67
2018-05-08T18:51:00.512Z,23.55
2018-05-08T18:54:03.213Z,23.55
2018-05-08T18:57:06.700Z,23.41
2018-05-08T19:00:15.781Z,23.08
2018-05-08T19:03:19.218Z,22.86
2018-05-08T19:06:21.958Z,22.61
2018-05-08T19:09:25.107Z,22.63
2018-05-08T19:12:27.834Z,22.91
2018-05-08T19:15:36.439Z,22.49
2018-05-08T19:18:44.994Z,22.44
2018-05-08T19:21:48.066Z,22.43
2018-05-08T19:24:50.718Z,22.47
2018-05-08T19:27:53.567Z,22.36
2018-05-08T19:30:56.284Z,22.03
2018-05-08T19:33:59.031Z,21.88
2018-05-08T19:37:07.153Z,21.85
2018-05-08T19:40:09.812Z,22.10
2018-05-08T19:43:13.339Z,22.12
2018-05-08T19:46:16.176Z,21.72
2018-05-08T19:49:18.985Z,21.74
2018-05-08T19:52:21.961Z,21.87
2018-05-08T19:55:24.676Z,21.67
2018-05-08T19:58:27.770Z,21.45
2018-05-08T20:01:31.396Z,21.39
2018-05-08T20:04:34.944Z,21.38
2018-05-08T20:07:38.400Z,21.47
2018-05-08T20:10:41.268Z,21.25
2018-05-08T20:13:44.006Z,21.12
2018-05-08T20:16:46.612Z,20.87
2018-05-08T20:19:49.261Z,20.94
2018-05-08T20:22:51.912Z,20.88
2018-05-08T20:25:54.964Z,20.76
2018-05-08T20:28:57.577Z,20.74
2018-05-08T20:32:00.113Z,20.80
2018-05-08T20:35:02.741Z,20.67
2018-05-08T20:38:05.376Z,20.63
2018-05-08T20:41:08.048Z,20.72
2018-05-08T20:44:10.800Z,20.53
2018-05-08T20:47:13.769Z,20.53
2018-05-08T20:50:16.580Z,20.57
2018-05-08T20:53:19.120Z,20.40
2018-05-08T21:00:12.267Z,20.22
2018-05-08T21:03:15.022Z,20.09
2018-05-08T21:06:17.792Z,20.07
2018-05-08T21:09:20.945Z,20.10
2018-05-08T21:12:24.145Z,20.29
2018-05-08T21:15:27.122Z,20.12
2018-05-08T21:18:30.911Z,20.04
2018-05-08T21:21:33.587Z,19.86
2018-05-08T21:24:36.165Z,19.84
2018-05-08T21:27:44.061Z,19.65
2018-05-08T21:30:52.244Z,19.50
2018-05-08T21:33:54.988Z,19.80
2018-05-08T21:36:57.634Z,19.59
2018-05-08T21:40:00.350Z,19.66
2018-05-08T21:43:03.050Z,19.48
2018-05-08T21:46:05.654Z,19.21
2018-05-08T21:49:09.898Z,19.31
2018-05-08T21:52:12.600Z,19.43
2018-05-08T21:55:15.144Z,19.33
2018-05-08T21:58:17.647Z,19.39
2018-05-08T22:01:21.072Z,19.12
2018-05-08T22:04:23.668Z,19.20
2018-05-08T22:07:26.264Z,19.10
2018-05-08T22:10:28.876Z,18.98
2018-05-08T22:13:31.453Z,18.86
2018-05-08T22:16:34.041Z,18.87
2018-05-08T22:19:36.649Z,19.11
2018-05-08T22:22:39.251Z,18.83
2018-05-08T22:25:41.844Z,18.53
2018-05-08T22:28:44.425Z,18.49
2018-05-08T22:31:47.076Z,18.78
2018-05-08T22:34:49.707Z,18.76
2018-05-08T22:37:52.267Z,18.67
2018-05-08T22:40:54.840Z,18.44
2018-05-08T22:43:57.402Z,18.70
2018-05-08T22:46:59.985Z,18.77
2018-05-08T22:50:02.574Z,18.56
2018-05-08T22:53:05.917Z,18.59
2018-05-08T22:56:08.506Z,18.58
2018-05-08T22:59:11.084Z,18.47
